sensor_id;sensor_type;location;lat;lon;timestamp;P1;durP1;ratioP1;P2;durP2;ratioP2
38717;SDS011;24468;52.128;9.278;2022-10-17T00:01:41;0.68;;;0.57;;
38717;SDS011;24468;52.128;9.278;2022-10-17T00:04:06;1.83;;;0.95;;
38717;SDS011;24468;52.128;9.278;2022-10-17T00:06:32;4.75;;;0.93;;
38717;SDS011;24468;52.128;9.278;2022-10-17T00:08:57;2.90;;;1.20;;
38717;SDS011;24468;52.128;9.278;2022-10-17T00:11:23;1.50;;;0.90;;
38717;SDS011;24468;52.128;9.278;2022-10-17T00:13:49;2.70;;;1.08;;
38717;SDS011;24468;52.128;9.278;2022-10-17T00:16:25;5.97;;;1.30;;
38717;SDS011;24468;52.128;9.278;2022-10-17T00:19:00;3.03;;;1.58;;
38717;SDS011;24468;52.128;9.278;2022-10-17T00:21:27;2.05;;;0.80;;
38717;SDS011;24468;52.128;9.278;2022-10-17T00:23:53;5.85;;;1.00;;
38717;SDS011;24468;52.128;9.278;2022-10-17T00:26:19;2.80;;;1.00;;
38717;SDS011;24468;52.128;9.278;2022-10-17T00:28:49;5.55;;;1.05;;
38717;SDS011;24468;52.128;9.278;2022-10-17T00:31:17;2.50;;;1.20;;
38717;SDS011;24468;52.128;9.278;2022-10-17T00:33:45;2.03;;;1.20;;
38717;SDS011;24468;52.128;9.278;2022-10-17T00:36:16;3.22;;;1.17;;
38717;SDS011;24468;52.128;9.278;2022-10-17T00:38:45;4.50;;;1.20;;
38717;SDS011;24468;52.128;9.278;2022-10-17T00:41:14;4.30;;;1.25;;
38717;SDS011;24468;52.128;9.278;2022-10-17T00:47:04;2.88;;;1.05;;
38717;SDS011;24468;52.128;9.278;2022-10-17T00:49:35;1.40;;;1.10;;
38717;SDS011;24468;52.128;9.278;2022-10-17T00:52:03;2.80;;;0.98;;
38717;SDS011;24468;52.128;9.278;2022-10-17T00:54:44;4.63;;;1.00;;
38717;SDS011;24468;52.128;9.278;2022-10-17T00:57:15;3.08;;;1.40;;
38717;SDS011;24468;52.128;9.278;2022-10-17T00:59:41;1.63;;;1.30;;
38717;SDS011;24468;52.128;9.278;2022-10-17T01:02:14;1.50;;;1.08;;
38717;SDS011;24468;52.128;9.278;2022-10-17T01:04:44;4.72;;;1.40;;
38717;SDS011;24468;52.128;9.278;2022-10-17T01:07:14;1.45;;;1.10;;
38717;SDS011;24468;52.128;9.278;2022-10-17T01:09:40;1.92;;;1.05;;
38717;SDS011;24468;52.128;9.278;2022-10-17T01:15:08;2.78;;;0.93;;
38717;SDS011;24468;52.128;9.278;2022-10-17T01:18:10;3.80;;;1.17;;
38717;SDS011;24468;52.128;9.278;2022-10-17T01:24:00;4.47;;;1.30;;
38717;SDS011;24468;52.128;9.278;2022-10-17T01:27:07;1.50;;;1.10;;
38717;SDS011;24468;52.128;9.278;2022-10-17T01:30:15;2.40;;;1.58;;
38717;SDS011;24468;52.128;9.278;2022-10-17T01:33:11;1.17;;;0.93;;
38717;SDS011;24468;52.128;9.278;2022-10-17T01:35:51;1.98;;;1.50;;
38717;SDS011;24468;52.128;9.278;2022-10-17T01:38:36;1.90;;;1.50;;
38717;SDS011;24468;52.128;9.278;2022-10-17T01:41:20;2.65;;;1.50;;
38717;SDS011;24468;52.128;9.278;2022-10-17T01:47:04;5.47;;;1.50;;
38717;SDS011;24468;52.128;9.278;2022-10-17T01:49:34;5.80;;;1.42;;
38717;SDS011;24468;52.128;9.278;2022-10-17T01:52:08;2.30;;;1.20;;
38717;SDS011;24468;52.128;9.278;2022-10-17T01:54:46;2.92;;;1.55;;
38717;SDS011;24468;52.128;9.278;2022-10-17T01:57:35;6.53;;;1.45;;
38717;SDS011;24468;52.128;9.278;2022-10-17T02:00:05;2.38;;;1.77;;
38717;SDS011;24468;52.128;9.278;2022-10-17T02:02:37;3.63;;;1.58;;
38717;SDS011;24468;52.128;9.278;2022-10-17T02:05:05;8.57;;;1.90;;
38717;SDS011;24468;52.128;9.278;2022-10-17T02:07:32;5.07;;;1.67;;
38717;SDS011;24468;52.128;9.278;2022-10-17T02:09:58;3.67;;;1.73;;
38717;SDS011;24468;52.128;9.278;2022-10-17T02:15:22;1.70;;;1.60;;
38717;SDS011;24468;52.128;9.278;2022-10-17T02:23:51;2.85;;;1.75;;
38717;SDS011;24468;52.128;9.278;2022-10-17T02:26:30;2.22;;;1.55;;
38717;SDS011;24468;52.128;9.278;2022-10-17T02:29:15;1.25;;;1.15;;
38717;SDS011;24468;52.128;9.278;2022-10-17T02:31:53;3.38;;;2.17;;
38717;SDS011;24468;52.128;9.278;2022-10-17T02:34:36;2.72;;;1.48;;
38717;SDS011;24468;52.128;9.278;2022-10-17T02:37:06;1.83;;;1.70;;
38717;SDS011;24468;52.128;9.278;2022-10-17T02:39:37;5.18;;;2.05;;
38717;SDS011;24468;52.128;9.278;2022-10-17T02:42:05;2.22;;;1.70;;
38717;SDS011;24468;52.128;9.278;2022-10-17T02:44:35;4.55;;;1.77;;
38717;SDS011;24468;52.128;9.278;2022-10-17T02:47:08;2.80;;;1.63;;
38717;SDS011;24468;52.128;9.278;2022-10-17T02:49:49;2.05;;;1.60;;
38717;SDS011;24468;52.128;9.278;2022-10-17T02:57:39;4.90;;;1.90;;
38717;SDS011;24468;52.128;9.278;2022-10-17T03:00:13;2.35;;;2.15;;
38717;SDS011;24468;52.128;9.278;2022-10-17T03:02:41;5.07;;;2.25;;
38717;SDS011;24468;52.128;9.278;2022-10-17T03:05:10;1.80;;;1.70;;
38717;SDS011;24468;52.128;9.278;2022-10-17T03:07:40;4.85;;;2.00;;
38717;SDS011;24468;52.128;9.278;2022-10-17T03:10:06;2.75;;;1.80;;
38717;SDS011;24468;52.128;9.278;2022-10-17T03:12:32;5.10;;;2.30;;
38717;SDS011;24468;52.128;9.278;2022-10-17T03:14:57;2.10;;;1.80;;
38717;SDS011;24468;52.128;9.278;2022-10-17T03:17:23;4.18;;;2.15;;
38717;SDS011;24468;52.128;9.278;2022-10-17T03:19:48;1.90;;;1.75;;
38717;SDS011;24468;52.128;9.278;2022-10-17T03:22:14;3.22;;;1.90;;
38717;SDS011;24468;52.128;9.278;2022-10-17T03:24:39;2.15;;;1.90;;
38717;SDS011;24468;52.128;9.278;2022-10-17T03:27:05;2.00;;;1.75;;
38717;SDS011;24468;52.128;9.278;2022-10-17T03:29:30;1.92;;;1.83;;
38717;SDS011;24468;52.128;9.278;2022-10-17T03:31:56;3.30;;;1.40;;
38717;SDS011;24468;52.128;9.278;2022-10-17T03:34:21;3.72;;;1.80;;
38717;SDS011;24468;52.128;9.278;2022-10-17T03:36:47;4.00;;;2.05;;
38717;SDS011;24468;52.128;9.278;2022-10-17T03:39:13;3.03;;;1.90;;
38717;SDS011;24468;52.128;9.278;2022-10-17T03:41:38;2.55;;;2.28;;
38717;SDS011;24468;52.128;9.278;2022-10-17T03:44:04;2.30;;;1.40;;
38717;SDS011;24468;52.128;9.278;2022-10-17T03:46:29;2.03;;;1.60;;
38717;SDS011;24468;52.128;9.278;2022-10-17T03:48:55;4.85;;;1.90;;
38717;SDS011;24468;52.128;9.278;2022-10-17T03:51:21;3.90;;;1.90;;
38717;SDS011;24468;52.128;9.278;2022-10-17T03:53:46;3.22;;;1.88;;
38717;SDS011;24468;52.128;9.278;2022-10-17T03:56:19;2.90;;;2.13;;
38717;SDS011;24468;52.128;9.278;2022-10-17T03:58:47;3.60;;;1.77;;
38717;SDS011;24468;52.128;9.278;2022-10-17T04:01:14;2.38;;;1.58;;
38717;SDS011;24468;52.128;9.278;2022-10-17T04:03:41;2.30;;;2.05;;
38717;SDS011;24468;52.128;9.278;2022-10-17T04:06:07;2.83;;;2.08;;
38717;SDS011;24468;52.128;9.278;2022-10-17T04:08:36;4.10;;;1.90;;
38717;SDS011;24468;52.128;9.278;2022-10-17T04:11:03;3.13;;;2.10;;
38717;SDS011;24468;52.128;9.278;2022-10-17T04:13:31;3.55;;;2.10;;
38717;SDS011;24468;52.128;9.278;2022-10-17T04:15:58;5.05;;;1.95;;
38717;SDS011;24468;52.128;9.278;2022-10-17T04:18:31;6.93;;;2.13;;
38717;SDS011;24468;52.128;9.278;2022-10-17T04:20:59;3.42;;;1.92;;
38717;SDS011;24468;52.128;9.278;2022-10-17T04:23:27;2.25;;;2.05;;
38717;SDS011;24468;52.128;9.278;2022-10-17T04:25:56;2.25;;;2.05;;
38717;SDS011;24468;52.128;9.278;2022-10-17T04:28:23;3.35;;;1.80;;
38717;SDS011;24468;52.128;9.278;2022-10-17T04:31:03;2.88;;;2.38;;
38717;SDS011;24468;52.128;9.278;2022-10-17T04:33:36;1.95;;;1.60;;
38717;SDS011;24468;52.128;9.278;2022-10-17T04:36:02;5.28;;;2.15;;
38717;SDS011;24468;52.128;9.278;2022-10-17T04:38:31;6.32;;;2.03;;
38717;SDS011;24468;52.128;9.278;2022-10-17T04:40:58;6.55;;;1.90;;
38717;SDS011;24468;52.128;9.278;2022-10-17T04:43:30;2.83;;;1.77;;
38717;SDS011;24468;52.128;9.278;2022-10-17T04:45:58;3.05;;;1.70;;
38717;SDS011;24468;52.128;9.278;2022-10-17T04:48:25;2.67;;;2.45;;
38717;SDS011;24468;52.128;9.278;2022-10-17T04:50:53;1.73;;;1.63;;
38717;SDS011;24468;52.128;9.278;2022-10-17T04:53:23;4.25;;;2.30;;
38717;SDS011;24468;52.128;9.278;2022-10-17T04:55:49;3.45;;;2.55;;
38717;SDS011;24468;52.128;9.278;2022-10-17T04:58:14;4.85;;;1.67;;
38717;SDS011;24468;52.128;9.278;2022-10-17T05:00:40;2.95;;;1.60;;
38717;SDS011;24468;52.128;9.278;2022-10-17T05:03:06;2.97;;;2.03;;
38717;SDS011;24468;52.128;9.278;2022-10-17T05:05:31;2.63;;;2.00;;
38717;SDS011;24468;52.128;9.278;2022-10-17T05:07:57;5.00;;;2.42;;
38717;SDS011;24468;52.128;9.278;2022-10-17T05:10:22;4.32;;;2.38;;
38717;SDS011;24468;52.128;9.278;2022-10-17T05:12:48;6.50;;;2.75;;
38717;SDS011;24468;52.128;9.278;2022-10-17T05:15:14;5.40;;;2.42;;
38717;SDS011;24468;52.128;9.278;2022-10-17T05:17:41;4.78;;;1.90;;
38717;SDS011;24468;52.128;9.278;2022-10-17T05:20:07;5.18;;;2.10;;
38717;SDS011;24468;52.128;9.278;2022-10-17T05:22:34;3.08;;;1.45;;
38717;SDS011;24468;52.128;9.278;2022-10-17T05:24:59;3.92;;;1.92;;
38717;SDS011;24468;52.128;9.278;2022-10-17T05:27:25;8.30;;;2.50;;
38717;SDS011;24468;52.128;9.278;2022-10-17T05:29:50;3.75;;;2.30;;
38717;SDS011;24468;52.128;9.278;2022-10-17T05:32:16;2.45;;;2.25;;
38717;SDS011;24468;52.128;9.278;2022-10-17T05:34:41;2.13;;;1.92;;
38717;SDS011;24468;52.128;9.278;2022-10-17T05:37:07;5.20;;;2.22;;
38717;SDS011;24468;52.128;9.278;2022-10-17T05:39:33;2.88;;;1.88;;
38717;SDS011;24468;52.128;9.278;2022-10-17T05:41:58;3.50;;;2.28;;
38717;SDS011;24468;52.128;9.278;2022-10-17T05:44:24;2.83;;;2.17;;
38717;SDS011;24468;52.128;9.278;2022-10-17T05:46:49;4.47;;;2.78;;
38717;SDS011;24468;52.128;9.278;2022-10-17T05:49:15;7.00;;;3.53;;
38717;SDS011;24468;52.128;9.278;2022-10-17T05:51:41;7.00;;;2.45;;
38717;SDS011;24468;52.128;9.278;2022-10-17T05:54:07;2.53;;;2.20;;
38717;SDS011;24468;52.128;9.278;2022-10-17T05:56:33;7.50;;;2.50;;
38717;SDS011;24468;52.128;9.278;2022-10-17T05:58:59;3.42;;;2.05;;
38717;SDS011;24468;52.128;9.278;2022-10-17T06:01:25;3.60;;;2.20;;
38717;SDS011;24468;52.128;9.278;2022-10-17T06:03:50;4.10;;;2.95;;
38717;SDS011;24468;52.128;9.278;2022-10-17T06:06:16;3.90;;;2.40;;
38717;SDS011;24468;52.128;9.278;2022-10-17T06:08:43;3.13;;;2.55;;
38717;SDS011;24468;52.128;9.278;2022-10-17T06:11:09;7.88;;;3.03;;
38717;SDS011;24468;52.128;9.278;2022-10-17T06:13:39;4.90;;;2.20;;
38717;SDS011;24468;52.128;9.278;2022-10-17T06:16:05;3.78;;;2.72;;
38717;SDS011;24468;52.128;9.278;2022-10-17T06:18:31;10.98;;;2.92;;
38717;SDS011;24468;52.128;9.278;2022-10-17T06:21:01;4.07;;;2.40;;
38717;SDS011;24468;52.128;9.278;2022-10-17T06:23:28;2.80;;;2.53;;
38717;SDS011;24468;52.128;9.278;2022-10-17T06:25:56;4.70;;;2.25;;
38717;SDS011;24468;52.128;9.278;2022-10-17T06:28:27;3.70;;;2.20;;
38717;SDS011;24468;52.128;9.278;2022-10-17T06:30:52;2.53;;;1.95;;
38717;SDS011;24468;52.128;9.278;2022-10-17T06:33:18;4.63;;;2.42;;
38717;SDS011;24468;52.128;9.278;2022-10-17T06:35:55;3.88;;;2.17;;
38717;SDS011;24468;52.128;9.278;2022-10-17T06:38:21;4.88;;;2.33;;
38717;SDS011;24468;52.128;9.278;2022-10-17T06:40:47;4.97;;;2.63;;
38717;SDS011;24468;52.128;9.278;2022-10-17T06:43:13;2.58;;;1.90;;
38717;SDS011;24468;52.128;9.278;2022-10-17T06:45:39;3.63;;;2.20;;
38717;SDS011;24468;52.128;9.278;2022-10-17T06:48:05;4.57;;;2.20;;
38717;SDS011;24468;52.128;9.278;2022-10-17T06:50:31;4.18;;;2.25;;
38717;SDS011;24468;52.128;9.278;2022-10-17T06:52:57;5.03;;;2.22;;
38717;SDS011;24468;52.128;9.278;2022-10-17T06:55:23;2.63;;;2.33;;
38717;SDS011;24468;52.128;9.278;2022-10-17T06:57:48;3.47;;;2.60;;
38717;SDS011;24468;52.128;9.278;2022-10-17T07:00:15;2.63;;;2.42;;
38717;SDS011;24468;52.128;9.278;2022-10-17T07:02:41;3.78;;;2.75;;
38717;SDS011;24468;52.128;9.278;2022-10-17T07:05:08;6.78;;;2.97;;
38717;SDS011;24468;52.128;9.278;2022-10-17T07:07:33;7.03;;;3.13;;
38717;SDS011;24468;52.128;9.278;2022-10-17T07:09:59;3.97;;;2.78;;
38717;SDS011;24468;52.128;9.278;2022-10-17T07:12:25;7.07;;;2.35;;
38717;SDS011;24468;52.128;9.278;2022-10-17T07:14:50;6.38;;;2.45;;
38717;SDS011;24468;52.128;9.278;2022-10-17T07:17:17;4.70;;;2.92;;
38717;SDS011;24468;52.128;9.278;2022-10-17T07:19:43;2.92;;;2.45;;
38717;SDS011;24468;52.128;9.278;2022-10-17T07:22:09;4.22;;;2.78;;
38717;SDS011;24468;52.128;9.278;2022-10-17T07:24:36;4.43;;;2.75;;
38717;SDS011;24468;52.128;9.278;2022-10-17T07:27:01;4.55;;;2.95;;
38717;SDS011;24468;52.128;9.278;2022-10-17T07:29:27;17.02;;;3.58;;
38717;SDS011;24468;52.128;9.278;2022-10-17T07:31:53;6.88;;;3.08;;
38717;SDS011;24468;52.128;9.278;2022-10-17T07:34:18;3.47;;;2.28;;
38717;SDS011;24468;52.128;9.278;2022-10-17T07:36:44;5.03;;;2.50;;
38717;SDS011;24468;52.128;9.278;2022-10-17T07:39:10;4.65;;;3.17;;
38717;SDS011;24468;52.128;9.278;2022-10-17T07:41:36;5.43;;;2.72;;
38717;SDS011;24468;52.128;9.278;2022-10-17T07:44:01;3.65;;;2.75;;
38717;SDS011;24468;52.128;9.278;2022-10-17T07:46:27;2.78;;;2.50;;
38717;SDS011;24468;52.128;9.278;2022-10-17T07:48:53;4.30;;;2.55;;
38717;SDS011;24468;52.128;9.278;2022-10-17T07:51:18;5.90;;;4.18;;
38717;SDS011;24468;52.128;9.278;2022-10-17T07:53:45;5.68;;;2.80;;
38717;SDS011;24468;52.128;9.278;2022-10-17T07:56:12;5.20;;;2.75;;
38717;SDS011;24468;52.128;9.278;2022-10-17T07:58:37;4.05;;;2.30;;
38717;SDS011;24468;52.128;9.278;2022-10-17T08:01:04;6.95;;;2.30;;
38717;SDS011;24468;52.128;9.278;2022-10-17T08:03:32;2.80;;;2.58;;
38717;SDS011;24468;52.128;9.278;2022-10-17T08:05:59;3.85;;;2.30;;
38717;SDS011;24468;52.128;9.278;2022-10-17T08:08:25;6.28;;;2.78;;
38717;SDS011;24468;52.128;9.278;2022-10-17T08:10:51;5.45;;;2.85;;
38717;SDS011;24468;52.128;9.278;2022-10-17T08:13:18;8.93;;;2.80;;
38717;SDS011;24468;52.128;9.278;2022-10-17T08:15:45;5.00;;;2.78;;
38717;SDS011;24468;52.128;9.278;2022-10-17T08:18:12;6.13;;;2.90;;
38717;SDS011;24468;52.128;9.278;2022-10-17T08:20:39;5.07;;;2.90;;
38717;SDS011;24468;52.128;9.278;2022-10-17T08:23:05;3.85;;;3.25;;
38717;SDS011;24468;52.128;9.278;2022-10-17T08:25:31;7.88;;;2.42;;
38717;SDS011;24468;52.128;9.278;2022-10-17T08:27:57;6.65;;;2.75;;
38717;SDS011;24468;52.128;9.278;2022-10-17T08:30:23;4.55;;;2.63;;
38717;SDS011;24468;52.128;9.278;2022-10-17T08:32:49;4.72;;;2.13;;
38717;SDS011;24468;52.128;9.278;2022-10-17T08:35:15;2.90;;;2.40;;
38717;SDS011;24468;52.128;9.278;2022-10-17T08:37:40;4.18;;;2.55;;
38717;SDS011;24468;52.128;9.278;2022-10-17T08:40:06;3.10;;;2.63;;
38717;SDS011;24468;52.128;9.278;2022-10-17T08:42:48;5.38;;;2.55;;
38717;SDS011;24468;52.128;9.278;2022-10-17T08:48:21;14.77;;;3.58;;
38717;SDS011;24468;52.128;9.278;2022-10-17T08:50:51;8.75;;;2.97;;
38717;SDS011;24468;52.128;9.278;2022-10-17T08:53:42;5.60;;;2.80;;
38717;SDS011;24468;52.128;9.278;2022-10-17T08:56:22;9.98;;;2.75;;
38717;SDS011;24468;52.128;9.278;2022-10-17T08:59:20;3.22;;;2.55;;
38717;SDS011;24468;52.128;9.278;2022-10-17T09:07:37;8.18;;;2.97;;
38717;SDS011;24468;52.128;9.278;2022-10-17T09:13:21;7.28;;;2.97;;
38717;SDS011;24468;52.128;9.278;2022-10-17T09:16:19;10.80;;;3.28;;
38717;SDS011;24468;52.128;9.278;2022-10-17T09:21:38;5.22;;;2.47;;
38717;SDS011;24468;52.128;9.278;2022-10-17T09:24:12;5.10;;;2.70;;
38717;SDS011;24468;52.128;9.278;2022-10-17T09:26:45;3.35;;;2.03;;
38717;SDS011;24468;52.128;9.278;2022-10-17T09:29:16;9.23;;;3.15;;
38717;SDS011;24468;52.128;9.278;2022-10-17T09:31:50;5.43;;;2.22;;
38717;SDS011;24468;52.128;9.278;2022-10-17T09:34:27;6.90;;;2.38;;
38717;SDS011;24468;52.128;9.278;2022-10-17T09:36:56;5.97;;;2.50;;
38717;SDS011;24468;52.128;9.278;2022-10-17T09:39:24;5.40;;;2.20;;
38717;SDS011;24468;52.128;9.278;2022-10-17T09:41:52;7.93;;;2.63;;
38717;SDS011;24468;52.128;9.278;2022-10-17T09:47:31;8.35;;;2.50;;
38717;SDS011;24468;52.128;9.278;2022-10-17T09:50:07;3.13;;;2.10;;
38717;SDS011;24468;52.128;9.278;2022-10-17T09:52:47;2.90;;;2.10;;
38717;SDS011;24468;52.128;9.278;2022-10-17T09:58:02;2.38;;;1.80;;
38717;SDS011;24468;52.128;9.278;2022-10-17T10:00:31;4.63;;;2.25;;
38717;SDS011;24468;52.128;9.278;2022-10-17T10:03:09;5.15;;;2.35;;
38717;SDS011;24468;52.128;9.278;2022-10-17T10:05:41;3.80;;;2.20;;
38717;SDS011;24468;52.128;9.278;2022-10-17T10:08:22;8.07;;;2.78;;
38717;SDS011;24468;52.128;9.278;2022-10-17T10:10:56;3.63;;;2.38;;
38717;SDS011;24468;52.128;9.278;2022-10-17T10:13:29;5.20;;;2.53;;
38717;SDS011;24468;52.128;9.278;2022-10-17T10:16:11;6.30;;;2.58;;
38717;SDS011;24468;52.128;9.278;2022-10-17T10:18:44;3.45;;;2.30;;
38717;SDS011;24468;52.128;9.278;2022-10-17T10:21:15;2.05;;;1.67;;
38717;SDS011;24468;52.128;9.278;2022-10-17T10:26:38;6.20;;;2.40;;
38717;SDS011;24468;52.128;9.278;2022-10-17T10:29:22;4.00;;;2.13;;
38717;SDS011;24468;52.128;9.278;2022-10-17T10:32:09;8.02;;;2.35;;
38717;SDS011;24468;52.128;9.278;2022-10-17T10:35:06;5.70;;;2.30;;
38717;SDS011;24468;52.128;9.278;2022-10-17T10:37:52;6.15;;;2.08;;
38717;SDS011;24468;52.128;9.278;2022-10-17T10:43:43;3.25;;;2.00;;
38717;SDS011;24468;52.128;9.278;2022-10-17T10:46:15;5.20;;;2.20;;
38717;SDS011;24468;52.128;9.278;2022-10-17T10:48:57;8.25;;;2.38;;
38717;SDS011;24468;52.128;9.278;2022-10-17T10:51:30;2.35;;;2.10;;
38717;SDS011;24468;52.128;9.278;2022-10-17T10:54:10;3.72;;;2.28;;
38717;SDS011;24468;52.128;9.278;2022-10-17T10:56:55;4.63;;;2.30;;
38717;SDS011;24468;52.128;9.278;2022-10-17T10:59:37;5.57;;;2.35;;
38717;SDS011;24468;52.128;9.278;2022-10-17T11:02:32;6.95;;;2.60;;
38717;SDS011;24468;52.128;9.278;2022-10-17T11:08:02;6.18;;;2.53;;
38717;SDS011;24468;52.128;9.278;2022-10-17T11:15:52;5.85;;;2.15;;
38717;SDS011;24468;52.128;9.278;2022-10-17T11:18:34;8.15;;;2.65;;
38717;SDS011;24468;52.128;9.278;2022-10-17T11:21:19;5.57;;;1.90;;
38717;SDS011;24468;52.128;9.278;2022-10-17T11:24:13;3.20;;;2.40;;
38717;SDS011;24468;52.128;9.278;2022-10-17T11:26:54;3.38;;;2.40;;
38717;SDS011;24468;52.128;9.278;2022-10-17T11:29:30;7.18;;;2.70;;
38717;SDS011;24468;52.128;9.278;2022-10-17T11:32:20;5.60;;;2.05;;
38717;SDS011;24468;52.128;9.278;2022-10-17T11:34:50;4.55;;;2.03;;
38717;SDS011;24468;52.128;9.278;2022-10-17T11:37:22;6.63;;;2.35;;
38717;SDS011;24468;52.128;9.278;2022-10-17T11:39:57;5.72;;;2.38;;
38717;SDS011;24468;52.128;9.278;2022-10-17T11:42:29;8.23;;;2.38;;
38717;SDS011;24468;52.128;9.278;2022-10-17T11:45:27;6.88;;;2.60;;
38717;SDS011;24468;52.128;9.278;2022-10-17T11:48:06;11.18;;;2.45;;
38717;SDS011;24468;52.128;9.278;2022-10-17T11:50:54;4.95;;;2.40;;
38717;SDS011;24468;52.128;9.278;2022-10-17T11:53:31;7.60;;;2.70;;
38717;SDS011;24468;52.128;9.278;2022-10-17T11:56:10;3.72;;;2.25;;
38717;SDS011;24468;52.128;9.278;2022-10-17T12:01:21;4.20;;;2.30;;
38717;SDS011;24468;52.128;9.278;2022-10-17T12:06:46;5.10;;;2.63;;
38717;SDS011;24468;52.128;9.278;2022-10-17T12:10:00;9.25;;;2.17;;
38717;SDS011;24468;52.128;9.278;2022-10-17T12:15:56;7.47;;;2.63;;
38717;SDS011;24468;52.128;9.278;2022-10-17T12:18:43;3.85;;;2.40;;
38717;SDS011;24468;52.128;9.278;2022-10-17T12:21:09;4.30;;;2.45;;
38717;SDS011;24468;52.128;9.278;2022-10-17T12:23:35;7.57;;;2.67;;
38717;SDS011;24468;52.128;9.278;2022-10-17T12:26:06;3.80;;;2.30;;
38717;SDS011;24468;52.128;9.278;2022-10-17T12:28:44;6.32;;;2.65;;
38717;SDS011;24468;52.128;9.278;2022-10-17T12:33:59;6.07;;;2.42;;
38717;SDS011;24468;52.128;9.278;2022-10-17T12:52:23;4.95;;;2.20;;
38717;SDS011;24468;52.128;9.278;2022-10-17T12:57:31;4.57;;;2.10;;
38717;SDS011;24468;52.128;9.278;2022-10-17T13:00:55;4.13;;;2.28;;
38717;SDS011;24468;52.128;9.278;2022-10-17T13:03:23;7.00;;;2.50;;
38717;SDS011;24468;52.128;9.278;2022-10-17T13:05:58;3.58;;;2.08;;
38717;SDS011;24468;52.128;9.278;2022-10-17T13:08:29;3.47;;;2.20;;
38717;SDS011;24468;52.128;9.278;2022-10-17T13:11:01;2.58;;;2.38;;
38717;SDS011;24468;52.128;9.278;2022-10-17T13:13:36;5.25;;;3.03;;
38717;SDS011;24468;52.128;9.278;2022-10-17T13:19:21;8.75;;;2.53;;
38717;SDS011;24468;52.128;9.278;2022-10-17T13:27:02;7.15;;;2.88;;
38717;SDS011;24468;52.128;9.278;2022-10-17T13:29:28;4.13;;;2.53;;
38717;SDS011;24468;52.128;9.278;2022-10-17T13:31:59;3.83;;;2.20;;
38717;SDS011;24468;52.128;9.278;2022-10-17T13:34:30;4.57;;;2.22;;
38717;SDS011;24468;52.128;9.278;2022-10-17T13:37:01;5.10;;;2.53;;
38717;SDS011;24468;52.128;9.278;2022-10-17T13:39:32;5.85;;;2.53;;
38717;SDS011;24468;52.128;9.278;2022-10-17T13:42:02;6.10;;;2.80;;
38717;SDS011;24468;52.128;9.278;2022-10-17T13:44:32;4.50;;;2.60;;
38717;SDS011;24468;52.128;9.278;2022-10-17T13:46:59;3.53;;;2.67;;
38717;SDS011;24468;52.128;9.278;2022-10-17T13:49:32;9.57;;;3.38;;
38717;SDS011;24468;52.128;9.278;2022-10-17T13:52:05;6.85;;;3.35;;
38717;SDS011;24468;52.128;9.278;2022-10-17T13:54:49;5.40;;;2.60;;
38717;SDS011;24468;52.128;9.278;2022-10-17T13:57:18;4.53;;;2.88;;
38717;SDS011;24468;52.128;9.278;2022-10-17T13:59:56;4.95;;;2.50;;
38717;SDS011;24468;52.128;9.278;2022-10-17T14:02:29;7.30;;;2.55;;
38717;SDS011;24468;52.128;9.278;2022-10-17T14:10:18;74.95;;;23.15;;
38717;SDS011;24468;52.128;9.278;2022-10-17T14:12:51;81.63;;;23.60;;
38717;SDS011;24468;52.128;9.278;2022-10-17T14:15:18;45.53;;;14.38;;
38717;SDS011;24468;52.128;9.278;2022-10-17T14:17:56;12.93;;;4.78;;
38717;SDS011;24468;52.128;9.278;2022-10-17T14:20:26;12.32;;;5.13;;
38717;SDS011;24468;52.128;9.278;2022-10-17T14:22:53;8.43;;;3.63;;
38717;SDS011;24468;52.128;9.278;2022-10-17T14:27:56;18.95;;;9.15;;
38717;SDS011;24468;52.128;9.278;2022-10-17T14:30:32;17.15;;;6.78;;
38717;SDS011;24468;52.128;9.278;2022-10-17T14:33:02;9.38;;;3.88;;
38717;SDS011;24468;52.128;9.278;2022-10-17T14:35:33;8.25;;;4.85;;
38717;SDS011;24468;52.128;9.278;2022-10-17T14:37:59;7.43;;;3.88;;
38717;SDS011;24468;52.128;9.278;2022-10-17T14:40:30;9.68;;;3.00;;
38717;SDS011;24468;52.128;9.278;2022-10-17T14:42:58;6.13;;;3.58;;
38717;SDS011;24468;52.128;9.278;2022-10-17T14:45:30;7.43;;;2.92;;
38717;SDS011;24468;52.128;9.278;2022-10-17T14:48:00;5.70;;;2.60;;
38717;SDS011;24468;52.128;9.278;2022-10-17T14:50:29;4.75;;;3.13;;
38717;SDS011;24468;52.128;9.278;2022-10-17T14:53:00;6.38;;;3.53;;
38717;SDS011;24468;52.128;9.278;2022-10-17T14:55:37;7.90;;;2.95;;
38717;SDS011;24468;52.128;9.278;2022-10-17T14:58:17;9.70;;;3.33;;
38717;SDS011;24468;52.128;9.278;2022-10-17T15:00:53;5.13;;;2.90;;
38717;SDS011;24468;52.128;9.278;2022-10-17T15:03:19;4.65;;;2.70;;
38717;SDS011;24468;52.128;9.278;2022-10-17T15:05:45;4.32;;;2.72;;
38717;SDS011;24468;52.128;9.278;2022-10-17T15:08:13;6.07;;;3.00;;
38717;SDS011;24468;52.128;9.278;2022-10-17T15:10:40;7.63;;;2.78;;
38717;SDS011;24468;52.128;9.278;2022-10-17T15:13:07;7.00;;;2.90;;
38717;SDS011;24468;52.128;9.278;2022-10-17T15:15:34;7.95;;;3.10;;
38717;SDS011;24468;52.128;9.278;2022-10-17T15:18:02;6.35;;;2.80;;
38717;SDS011;24468;52.128;9.278;2022-10-17T15:20:28;7.18;;;3.15;;
38717;SDS011;24468;52.128;9.278;2022-10-17T15:22:55;7.30;;;3.13;;
38717;SDS011;24468;52.128;9.278;2022-10-17T15:25:23;6.75;;;2.92;;
38717;SDS011;24468;52.128;9.278;2022-10-17T15:27:50;7.20;;;3.15;;
38717;SDS011;24468;52.128;9.278;2022-10-17T15:30:26;4.65;;;2.50;;
38717;SDS011;24468;52.128;9.278;2022-10-17T15:32:58;6.50;;;2.42;;
38717;SDS011;24468;52.128;9.278;2022-10-17T15:35:24;7.43;;;2.60;;
38717;SDS011;24468;52.128;9.278;2022-10-17T15:37:51;5.97;;;2.60;;
38717;SDS011;24468;52.128;9.278;2022-10-17T15:40:22;6.60;;;3.45;;
38717;SDS011;24468;52.128;9.278;2022-10-17T15:42:52;3.05;;;2.75;;
38717;SDS011;24468;52.128;9.278;2022-10-17T15:45:18;5.40;;;2.92;;
38717;SDS011;24468;52.128;9.278;2022-10-17T15:48:03;6.72;;;3.38;;
38717;SDS011;24468;52.128;9.278;2022-10-17T15:50:31;9.00;;;3.15;;
38717;SDS011;24468;52.128;9.278;2022-10-17T15:52:57;7.47;;;2.83;;
38717;SDS011;24468;52.128;9.278;2022-10-17T15:55:23;7.00;;;3.45;;
38717;SDS011;24468;52.128;9.278;2022-10-17T15:57:49;4.25;;;2.70;;
38717;SDS011;24468;52.128;9.278;2022-10-17T16:00:16;6.88;;;2.80;;
38717;SDS011;24468;52.128;9.278;2022-10-17T16:02:47;8.50;;;2.70;;
38717;SDS011;24468;52.128;9.278;2022-10-17T16:05:19;8.88;;;3.55;;
38717;SDS011;24468;52.128;9.278;2022-10-17T16:07:47;5.13;;;2.70;;
38717;SDS011;24468;52.128;9.278;2022-10-17T16:10:14;11.07;;;3.45;;
38717;SDS011;24468;52.128;9.278;2022-10-17T16:12:40;8.13;;;3.42;;
38717;SDS011;24468;52.128;9.278;2022-10-17T16:15:08;7.93;;;3.35;;
38717;SDS011;24468;52.128;9.278;2022-10-17T16:17:39;6.85;;;3.67;;
38717;SDS011;24468;52.128;9.278;2022-10-17T16:20:05;6.45;;;3.08;;
38717;SDS011;24468;52.128;9.278;2022-10-17T16:22:32;5.63;;;3.55;;
38717;SDS011;24468;52.128;9.278;2022-10-17T16:25:00;12.10;;;3.75;;
38717;SDS011;24468;52.128;9.278;2022-10-17T16:27:34;10.50;;;3.92;;
38717;SDS011;24468;52.128;9.278;2022-10-17T16:30:00;6.93;;;3.80;;
38717;SDS011;24468;52.128;9.278;2022-10-17T16:32:28;8.10;;;3.97;;
38717;SDS011;24468;52.128;9.278;2022-10-17T16:34:54;6.95;;;4.40;;
38717;SDS011;24468;52.128;9.278;2022-10-17T16:37:20;7.28;;;4.63;;
38717;SDS011;24468;52.128;9.278;2022-10-17T16:39:45;11.52;;;5.53;;
38717;SDS011;24468;52.128;9.278;2022-10-17T16:42:16;10.65;;;5.28;;
38717;SDS011;24468;52.128;9.278;2022-10-17T16:44:42;9.00;;;4.15;;
38717;SDS011;24468;52.128;9.278;2022-10-17T16:47:08;10.52;;;3.85;;
38717;SDS011;24468;52.128;9.278;2022-10-17T16:49:34;4.90;;;3.97;;
38717;SDS011;24468;52.128;9.278;2022-10-17T16:51:59;8.25;;;3.50;;
38717;SDS011;24468;52.128;9.278;2022-10-17T16:54:25;9.95;;;3.60;;
38717;SDS011;24468;52.128;9.278;2022-10-17T16:56:50;10.65;;;3.60;;
38717;SDS011;24468;52.128;9.278;2022-10-17T16:59:16;3.83;;;3.05;;